sensor_id;sensor_type;location;lat;lon;timestamp;temperature;humidity
21834;DHT22;11079;51.092;3.458;2022-10-16T00:58:28;14.30;99.90
21834;DHT22;11079;51.092;3.458;2022-10-16T01:57:50;13.50;99.90
21834;DHT22;11079;51.092;3.458;2022-10-16T03:11:19;13.50;99.90
21834;DHT22;11079;51.092;3.458;2022-10-16T06:18:09;13.40;99.90
21834;DHT22;11079;51.092;3.458;2022-10-16T06:20:44;13.60;99.90
21834;DHT22;11079;51.092;3.458;2022-10-16T06:23:12;13.70;99.90
21834;DHT22;11079;51.092;3.458;2022-10-16T06:25:38;13.70;99.90
21834;DHT22;11079;51.092;3.458;2022-10-16T06:28:03;13.70;99.90
21834;DHT22;11079;51.092;3.458;2022-10-16T06:30:29;13.70;99.90
21834;DHT22;11079;51.092;3.458;2022-10-16T06:32:54;13.70;99.90
21834;DHT22;11079;51.092;3.458;2022-10-16T06:35:20;13.80;99.90
21834;DHT22;11079;51.092;3.458;2022-10-16T06:37:46;14.00;99.90
21834;DHT22;11079;51.092;3.458;2022-10-16T06:40:11;14.20;99.90
21834;DHT22;11079;51.092;3.458;2022-10-16T06:42:39;14.40;99.90
21834;DHT22;11079;51.092;3.458;2022-10-16T06:45:05;14.70;99.90
21834;DHT22;11079;51.092;3.458;2022-10-16T06:47:33;14.80;99.90
21834;DHT22;11079;51.092;3.458;2022-10-16T06:49:59;15.10;99.90
21834;DHT22;11079;51.092;3.458;2022-10-16T06:52:27;15.50;99.90
21834;DHT22;11079;51.092;3.458;2022-10-16T06:54:56;16.00;99.90
21834;DHT22;11079;51.092;3.458;2022-10-16T06:57:22;16.60;99.90
21834;DHT22;11079;51.092;3.458;2022-10-16T06:59:47;17.10;99.90
21834;DHT22;11079;51.092;3.458;2022-10-16T07:02:19;17.60;99.90
21834;DHT22;11079;51.092;3.458;2022-10-16T07:04:45;17.80;99.90
21834;DHT22;11079;51.092;3.458;2022-10-16T07:07:18;18.70;99.90
21834;DHT22;11079;51.092;3.458;2022-10-16T07:09:51;19.10;99.90
21834;DHT22;11079;51.092;3.458;2022-10-16T07:12:17;19.00;99.90
21834;DHT22;11079;51.092;3.458;2022-10-16T07:14:46;18.50;99.90
21834;DHT22;11079;51.092;3.458;2022-10-16T07:17:11;18.50;99.90
21834;DHT22;11079;51.092;3.458;2022-10-16T07:19:42;18.80;99.90
21834;DHT22;11079;51.092;3.458;2022-10-16T07:22:08;19.20;99.90
21834;DHT22;11079;51.092;3.458;2022-10-16T07:24:59;19.10;99.90
21834;DHT22;11079;51.092;3.458;2022-10-16T07:27:30;19.10;99.90
21834;DHT22;11079;51.092;3.458;2022-10-16T07:29:59;19.20;99.90
21834;DHT22;11079;51.092;3.458;2022-10-16T07:32:28;19.30;99.90
21834;DHT22;11079;51.092;3.458;2022-10-16T07:34:53;19.40;99.90
21834;DHT22;11079;51.092;3.458;2022-10-16T07:37:21;19.80;99.90
21834;DHT22;11079;51.092;3.458;2022-10-16T07:39:47;19.30;99.90
21834;DHT22;11079;51.092;3.458;2022-10-16T07:42:13;19.30;99.90
21834;DHT22;11079;51.092;3.458;2022-10-16T07:44:43;20.10;99.90
21834;DHT22;11079;51.092;3.458;2022-10-16T07:47:11;20.90;99.90
21834;DHT22;11079;51.092;3.458;2022-10-16T07:49:37;20.70;99.90
21834;DHT22;11079;51.092;3.458;2022-10-16T07:52:05;21.30;99.90
21834;DHT22;11079;51.092;3.458;2022-10-16T07:54:40;21.40;99.90
21834;DHT22;11079;51.092;3.458;2022-10-16T07:57:05;21.10;99.90
21834;DHT22;11079;51.092;3.458;2022-10-16T07:59:33;21.70;99.90
21834;DHT22;11079;51.092;3.458;2022-10-16T08:01:59;22.90;99.90
21834;DHT22;11079;51.092;3.458;2022-10-16T08:04:24;22.60;99.90
21834;DHT22;11079;51.092;3.458;2022-10-16T08:07:02;22.80;99.90
21834;DHT22;11079;51.092;3.458;2022-10-16T08:09:28;24.60;99.90
21834;DHT22;11079;51.092;3.458;2022-10-16T08:11:54;25.90;99.90
21834;DHT22;11079;51.092;3.458;2022-10-16T08:14:19;26.00;99.90
21834;DHT22;11079;51.092;3.458;2022-10-16T08:16:45;25.50;99.90
21834;DHT22;11079;51.092;3.458;2022-10-16T08:22:30;26.60;99.90
21834;DHT22;11079;51.092;3.458;2022-10-16T08:25:01;26.90;99.90
21834;DHT22;11079;51.092;3.458;2022-10-16T08:27:33;28.40;99.90
21834;DHT22;11079;51.092;3.458;2022-10-16T08:30:27;29.70;99.90
21834;DHT22;11079;51.092;3.458;2022-10-16T08:32:52;30.70;99.90
21834;DHT22;11079;51.092;3.458;2022-10-16T08:35:18;30.80;99.90
21834;DHT22;11079;51.092;3.458;2022-10-16T08:37:47;31.20;99.90
21834;DHT22;11079;51.092;3.458;2022-10-16T08:40:20;32.00;99.90
21834;DHT22;11079;51.092;3.458;2022-10-16T08:48:46;31.00;99.90
21834;DHT22;11079;51.092;3.458;2022-10-16T08:51:39;31.50;99.90
21834;DHT22;11079;51.092;3.458;2022-10-16T08:54:06;30.20;99.90
21834;DHT22;11079;51.092;3.458;2022-10-16T08:56:37;30.10;99.90
21834;DHT22;11079;51.092;3.458;2022-10-16T08:59:06;29.80;99.90
21834;DHT22;11079;51.092;3.458;2022-10-16T09:01:44;28.90;99.90
21834;DHT22;11079;51.092;3.458;2022-10-16T09:04:26;28.40;99.90
21834;DHT22;11079;51.092;3.458;2022-10-16T09:10:20;29.20;99.90
21834;DHT22;11079;51.092;3.458;2022-10-16T09:13:21;29.60;99.90
21834;DHT22;11079;51.092;3.458;2022-10-16T09:16:13;30.70;99.90
21834;DHT22;11079;51.092;3.458;2022-10-16T09:18:58;31.40;99.90
21834;DHT22;11079;51.092;3.458;2022-10-16T09:21:37;31.40;99.90
21834;DHT22;11079;51.092;3.458;2022-10-16T09:24:17;31.70;98.50
21834;DHT22;11079;51.092;3.458;2022-10-16T09:26:44;32.50;99.00
21834;DHT22;11079;51.092;3.458;2022-10-16T09:29:39;31.50;98.00
21834;DHT22;11079;51.092;3.458;2022-10-16T09:35:31;29.10;99.90
21834;DHT22;11079;51.092;3.458;2022-10-16T09:37:57;28.20;99.90
21834;DHT22;11079;51.092;3.458;2022-10-16T09:40:59;27.80;99.90
21834;DHT22;11079;51.092;3.458;2022-10-16T09:43:39;27.40;99.90
21834;DHT22;11079;51.092;3.458;2022-10-16T09:48:55;26.40;99.90
21834;DHT22;11079;51.092;3.458;2022-10-16T09:51:29;27.50;99.90
21834;DHT22;11079;51.092;3.458;2022-10-16T09:54:16;28.40;99.90
21834;DHT22;11079;51.092;3.458;2022-10-16T09:56:42;30.00;99.90
21834;DHT22;11079;51.092;3.458;2022-10-16T09:59:33;29.90;99.90
21834;DHT22;11079;51.092;3.458;2022-10-16T10:02:04;29.60;99.90
21834;DHT22;11079;51.092;3.458;2022-10-16T10:04:44;29.80;99.90
21834;DHT22;11079;51.092;3.458;2022-10-16T10:07:25;30.40;99.90
21834;DHT22;11079;51.092;3.458;2022-10-16T10:09:52;31.80;99.90
21834;DHT22;11079;51.092;3.458;2022-10-16T10:12:26;33.10;99.20
21834;DHT22;11079;51.092;3.458;2022-10-16T10:14:56;34.10;96.00
21834;DHT22;11079;51.092;3.458;2022-10-16T10:17:24;34.60;94.30
21834;DHT22;11079;51.092;3.458;2022-10-16T10:19:53;34.60;91.60
21834;DHT22;11079;51.092;3.458;2022-10-16T10:22:30;34.40;92.40
21834;DHT22;11079;51.092;3.458;2022-10-16T10:30:15;34.00;90.30
21834;DHT22;11079;51.092;3.458;2022-10-16T10:38:27;30.10;94.20
21834;DHT22;11079;51.092;3.458;2022-10-16T10:46:35;26.50;99.90
21834;DHT22;11079;51.092;3.458;2022-10-16T10:49:19;27.20;99.90
21834;DHT22;11079;51.092;3.458;2022-10-16T10:57:30;26.50;99.90
21834;DHT22;11079;51.092;3.458;2022-10-16T11:05:59;26.90;99.90
21834;DHT22;11079;51.092;3.458;2022-10-16T11:09:16;28.10;99.90
21834;DHT22;11079;51.092;3.458;2022-10-16T11:11:35;27.60;99.90
21834;DHT22;11079;51.092;3.458;2022-10-16T11:14:24;25.70;99.90
21834;DHT22;11079;51.092;3.458;2022-10-16T11:16:55;25.60;99.90
21834;DHT22;11079;51.092;3.458;2022-10-16T11:20:05;24.80;99.90
21834;DHT22;11079;51.092;3.458;2022-10-16T11:22:36;24.50;99.90
21834;DHT22;11079;51.092;3.458;2022-10-16T11:25:16;25.30;99.90
21834;DHT22;11079;51.092;3.458;2022-10-16T11:30:47;26.30;99.90
21834;DHT22;11079;51.092;3.458;2022-10-16T11:36:19;30.20;99.90
21834;DHT22;11079;51.092;3.458;2022-10-16T11:38:58;31.40;99.50
21834;DHT22;11079;51.092;3.458;2022-10-16T11:50:52;30.00;95.10
21834;DHT22;11079;51.092;3.458;2022-10-16T11:56:05;27.20;98.90
21834;DHT22;11079;51.092;3.458;2022-10-16T11:58:45;27.10;99.90
21834;DHT22;11079;51.092;3.458;2022-10-16T12:01:18;26.90;99.90
21834;DHT22;11079;51.092;3.458;2022-10-16T12:04:18;27.10;99.90
21834;DHT22;11079;51.092;3.458;2022-10-16T12:09:33;28.00;99.90
21834;DHT22;11079;51.092;3.458;2022-10-16T12:12:00;29.60;99.60
21834;DHT22;11079;51.092;3.458;2022-10-16T12:16:59;26.80;99.40
21834;DHT22;11079;51.092;3.458;2022-10-16T12:19:28;26.20;99.90
21834;DHT22;11079;51.092;3.458;2022-10-16T12:22:00;25.40;99.90
21834;DHT22;11079;51.092;3.458;2022-10-16T12:24:38;24.00;99.90
21834;DHT22;11079;51.092;3.458;2022-10-16T12:27:31;23.70;99.90
21834;DHT22;11079;51.092;3.458;2022-10-16T12:30:02;23.10;99.90
21834;DHT22;11079;51.092;3.458;2022-10-16T12:32:38;23.00;99.90
21834;DHT22;11079;51.092;3.458;2022-10-16T12:35:16;22.50;99.90
21834;DHT22;11079;51.092;3.458;2022-10-16T12:37:44;22.40;99.90
21834;DHT22;11079;51.092;3.458;2022-10-16T12:40:26;22.50;99.90
21834;DHT22;11079;51.092;3.458;2022-10-16T12:42:52;22.50;99.90
21834;DHT22;11079;51.092;3.458;2022-10-16T12:45:29;22.20;99.90
21834;DHT22;11079;51.092;3.458;2022-10-16T12:47:57;22.70;99.90
21834;DHT22;11079;51.092;3.458;2022-10-16T12:50:34;22.80;99.90
21834;DHT22;11079;51.092;3.458;2022-10-16T12:53:02;22.80;99.90
21834;DHT22;11079;51.092;3.458;2022-10-16T12:55:42;22.80;99.90
21834;DHT22;11079;51.092;3.458;2022-10-16T13:00:54;22.60;99.90
21834;DHT22;11079;51.092;3.458;2022-10-16T13:06:35;22.20;99.90
21834;DHT22;11079;51.092;3.458;2022-10-16T13:23:03;21.80;99.90
21834;DHT22;11079;51.092;3.458;2022-10-16T13:28:37;21.30;99.90
21834;DHT22;11079;51.092;3.458;2022-10-16T13:31:03;21.40;99.90
21834;DHT22;11079;51.092;3.458;2022-10-16T13:33:32;21.40;99.90
21834;DHT22;11079;51.092;3.458;2022-10-16T13:35:58;21.60;99.90
21834;DHT22;11079;51.092;3.458;2022-10-16T13:38:33;21.70;99.90
21834;DHT22;11079;51.092;3.458;2022-10-16T13:41:11;21.50;99.90
21834;DHT22;11079;51.092;3.458;2022-10-16T13:43:47;21.30;99.90
21834;DHT22;11079;51.092;3.458;2022-10-16T13:46:38;21.50;99.90
21834;DHT22;11079;51.092;3.458;2022-10-16T13:49:16;21.60;99.90
21834;DHT22;11079;51.092;3.458;2022-10-16T13:51:57;21.30;99.90
21834;DHT22;11079;51.092;3.458;2022-10-16T13:54:24;21.10;99.90
21834;DHT22;11079;51.092;3.458;2022-10-16T13:56:50;20.80;99.90
21834;DHT22;11079;51.092;3.458;2022-10-16T13:59:43;20.90;99.90
21834;DHT22;11079;51.092;3.458;2022-10-16T14:04:46;20.90;99.90
21834;DHT22;11079;51.092;3.458;2022-10-16T14:07:25;20.90;99.90
21834;DHT22;11079;51.092;3.458;2022-10-16T14:09:52;21.00;99.90
21834;DHT22;11079;51.092;3.458;2022-10-16T14:12:19;21.00;99.90
21834;DHT22;11079;51.092;3.458;2022-10-16T14:14:47;21.10;99.90
21834;DHT22;11079;51.092;3.458;2022-10-16T14:17:35;21.00;99.90
21834;DHT22;11079;51.092;3.458;2022-10-16T14:20:05;21.00;99.90
21834;DHT22;11079;51.092;3.458;2022-10-16T14:22:37;20.80;99.90
21834;DHT22;11079;51.092;3.458;2022-10-16T14:28:19;20.50;99.90
21834;DHT22;11079;51.092;3.458;2022-10-16T14:33:31;20.40;99.90
21834;DHT22;11079;51.092;3.458;2022-10-16T14:36:16;20.40;99.90
21834;DHT22;11079;51.092;3.458;2022-10-16T14:39:13;20.00;99.90
21834;DHT22;11079;51.092;3.458;2022-10-16T14:41:45;19.70;99.90
21834;DHT22;11079;51.092;3.458;2022-10-16T14:44:12;19.50;99.90
21834;DHT22;11079;51.092;3.458;2022-10-16T14:46:40;19.40;99.90
21834;DHT22;11079;51.092;3.458;2022-10-16T14:51:36;19.50;99.90
21834;DHT22;11079;51.092;3.458;2022-10-16T14:54:03;19.40;99.90
21834;DHT22;11079;51.092;3.458;2022-10-16T15:01:49;19.50;99.90
21834;DHT22;11079;51.092;3.458;2022-10-16T15:04:15;19.20;99.90
21834;DHT22;11079;51.092;3.458;2022-10-16T15:06:42;19.10;99.90
21834;DHT22;11079;51.092;3.458;2022-10-16T15:09:08;19.20;99.90
21834;DHT22;11079;51.092;3.458;2022-10-16T15:11:33;19.30;99.90
21834;DHT22;11079;51.092;3.458;2022-10-16T15:13:59;19.30;99.90
21834;DHT22;11079;51.092;3.458;2022-10-16T15:16:25;19.20;99.90
21834;DHT22;11079;51.092;3.458;2022-10-16T15:18:50;19.10;99.90
21834;DHT22;11079;51.092;3.458;2022-10-16T15:21:26;19.00;99.90
21834;DHT22;11079;51.092;3.458;2022-10-16T15:24:00;19.10;99.90
21834;DHT22;11079;51.092;3.458;2022-10-16T15:26:29;19.20;99.90
21834;DHT22;11079;51.092;3.458;2022-10-16T15:28:56;19.20;99.90
21834;DHT22;11079;51.092;3.458;2022-10-16T15:31:21;19.30;99.90
21834;DHT22;11079;51.092;3.458;2022-10-16T15:33:50;19.40;99.90
21834;DHT22;11079;51.092;3.458;2022-10-16T15:36:33;19.40;99.90
21834;DHT22;11079;51.092;3.458;2022-10-16T15:39:15;19.40;99.90
21834;DHT22;11079;51.092;3.458;2022-10-16T15:41:46;19.20;99.90
21834;DHT22;11079;51.092;3.458;2022-10-16T15:44:19;19.40;99.90
21834;DHT22;11079;51.092;3.458;2022-10-16T15:46:46;19.40;99.90
21834;DHT22;11079;51.092;3.458;2022-10-16T15:49:12;19.40;99.90
21834;DHT22;11079;51.092;3.458;2022-10-16T15:51:39;19.40;99.90
21834;DHT22;11079;51.092;3.458;2022-10-16T15:54:05;19.30;99.90
21834;DHT22;11079;51.092;3.458;2022-10-16T15:56:30;19.40;99.90
21834;DHT22;11079;51.092;3.458;2022-10-16T15:58:59;19.50;99.90
21834;DHT22;11079;51.092;3.458;2022-10-16T16:01:24;19.60;99.90
21834;DHT22;11079;51.092;3.458;2022-10-16T16:03:53;19.80;99.90
21834;DHT22;11079;51.092;3.458;2022-10-16T16:06:19;19.90;99.90
21834;DHT22;11079;51.092;3.458;2022-10-16T16:08:45;19.70;99.90
21834;DHT22;11079;51.092;3.458;2022-10-16T16:11:13;19.50;99.90
21834;DHT22;11079;51.092;3.458;2022-10-16T16:13:39;19.40;99.90
21834;DHT22;11079;51.092;3.458;2022-10-16T16:16:10;19.50;99.90
21834;DHT22;11079;51.092;3.458;2022-10-16T16:18:37;19.60;99.90
21834;DHT22;11079;51.092;3.458;2022-10-16T16:21:03;19.50;99.90
21834;DHT22;11079;51.092;3.458;2022-10-16T16:23:29;19.70;99.90
21834;DHT22;11079;51.092;3.458;2022-10-16T16:26:11;19.70;99.90
21834;DHT22;11079;51.092;3.458;2022-10-16T16:28:39;19.80;99.90
21834;DHT22;11079;51.092;3.458;2022-10-16T16:31:05;19.80;99.90
21834;DHT22;11079;51.092;3.458;2022-10-16T16:33:30;19.80;99.90
21834;DHT22;11079;51.092;3.458;2022-10-16T16:36:01;19.90;99.90
21834;DHT22;11079;51.092;3.458;2022-10-16T16:38:47;19.90;99.90
21834;DHT22;11079;51.092;3.458;2022-10-16T16:41:24;19.60;99.90
21834;DHT22;11079;51.092;3.458;2022-10-16T16:43:51;19.40;99.90
21834;DHT22;11079;51.092;3.458;2022-10-16T16:46:17;19.40;99.90
21834;DHT22;11079;51.092;3.458;2022-10-16T16:48:43;19.20;99.90
21834;DHT22;11079;51.092;3.458;2022-10-16T16:51:14;19.20;99.90
21834;DHT22;11079;51.092;3.458;2022-10-16T16:53:42;19.00;99.90
21834;DHT22;11079;51.092;3.458;2022-10-16T16:56:08;19.00;99.90
21834;DHT22;11079;51.092;3.458;2022-10-16T16:58:34;18.90;99.90
21834;DHT22;11079;51.092;3.458;2022-10-16T17:01:01;18.70;99.90
21834;DHT22;11079;51.092;3.458;2022-10-16T17:03:28;18.80;99.90
21834;DHT22;11079;51.092;3.458;2022-10-16T17:06:02;18.80;99.90
21834;DHT22;11079;51.092;3.458;2022-10-16T17:08:28;18.70;99.90
21834;DHT22;11079;51.092;3.458;2022-10-16T17:10:55;18.90;99.90
21834;DHT22;11079;51.092;3.458;2022-10-16T17:13:23;18.60;99.90
21834;DHT22;11079;51.092;3.458;2022-10-16T17:15:49;18.50;99.90
21834;DHT22;11079;51.092;3.458;2022-10-16T17:18:17;18.40;99.90
21834;DHT22;11079;51.092;3.458;2022-10-16T17:20:52;18.40;99.90
21834;DHT22;11079;51.092;3.458;2022-10-16T17:23:19;18.30;99.90
21834;DHT22;11079;51.092;3.458;2022-10-16T17:25:50;18.30;99.90
21834;DHT22;11079;51.092;3.458;2022-10-16T17:28:24;18.40;99.90
21834;DHT22;11079;51.092;3.458;2022-10-16T17:34:14;18.40;99.90
21834;DHT22;11079;51.092;3.458;2022-10-16T17:36:40;18.40;99.90
21834;DHT22;11079;51.092;3.458;2022-10-16T17:39:29;18.50;99.90
21834;DHT22;11079;51.092;3.458;2022-10-16T17:41:54;18.40;99.90
21834;DHT22;11079;51.092;3.458;2022-10-16T17:44:20;18.30;99.90
21834;DHT22;11079;51.092;3.458;2022-10-16T17:46:51;18.00;99.90
21834;DHT22;11079;51.092;3.458;2022-10-16T17:49:22;18.00;99.90
21834;DHT22;11079;51.092;3.458;2022-10-16T17:51:50;17.90;99.90
21834;DHT22;11079;51.092;3.458;2022-10-16T17:54:16;17.90;99.90
21834;DHT22;11079;51.092;3.458;2022-10-16T17:56:42;18.10;99.90
21834;DHT22;11079;51.092;3.458;2022-10-16T17:59:44;18.20;99.90
21834;DHT22;11079;51.092;3.458;2022-10-16T18:02:30;18.00;99.90
21834;DHT22;11079;51.092;3.458;2022-10-16T18:04:55;17.90;99.90
21834;DHT22;11079;51.092;3.458;2022-10-16T18:07:31;17.90;99.90
21834;DHT22;11079;51.092;3.458;2022-10-16T18:10:12;17.90;99.90
21834;DHT22;11079;51.092;3.458;2022-10-16T18:12:39;17.80;99.90
21834;DHT22;11079;51.092;3.458;2022-10-16T18:15:11;17.70;99.90
21834;DHT22;11079;51.092;3.458;2022-10-16T18:17:50;17.70;99.90
21834;DHT22;11079;51.092;3.458;2022-10-16T18:27:06;17.40;99.90
21834;DHT22;11079;51.092;3.458;2022-10-16T18:29:50;17.50;99.90
21834;DHT22;11079;51.092;3.458;2022-10-16T18:32:34;17.30;99.90
21834;DHT22;11079;51.092;3.458;2022-10-16T18:35:00;17.10;99.90
21834;DHT22;11079;51.092;3.458;2022-10-16T18:37:34;17.20;99.90
21834;DHT22;11079;51.092;3.458;2022-10-16T18:40:10;17.00;99.90
21834;DHT22;11079;51.092;3.458;2022-10-16T18:42:47;16.90;99.90
21834;DHT22;11079;51.092;3.458;2022-10-16T18:45:14;16.80;99.90
21834;DHT22;11079;51.092;3.458;2022-10-16T18:47:42;16.70;99.90
21834;DHT22;11079;51.092;3.458;2022-10-16T18:50:08;16.50;99.90
21834;DHT22;11079;51.092;3.458;2022-10-16T18:52:34;16.40;99.90
21834;DHT22;11079;51.092;3.458;2022-10-16T18:55:00;16.40;99.90
21834;DHT22;11079;51.092;3.458;2022-10-16T18:57:29;16.50;99.90
21834;DHT22;11079;51.092;3.458;2022-10-16T18:59:55;16.40;99.90
21834;DHT22;11079;51.092;3.458;2022-10-16T19:02:22;16.20;99.90
21834;DHT22;11079;51.092;3.458;2022-10-16T19:04:47;16.30;99.90
21834;DHT22;11079;51.092;3.458;2022-10-16T19:07:13;16.20;99.90
21834;DHT22;11079;51.092;3.458;2022-10-16T19:09:42;16.40;99.90
21834;DHT22;11079;51.092;3.458;2022-10-16T19:12:08;16.30;99.90
21834;DHT22;11079;51.092;3.458;2022-10-16T19:14:34;16.30;99.90
21834;DHT22;11079;51.092;3.458;2022-10-16T19:17:02;16.20;99.90
21834;DHT22;11079;51.092;3.458;2022-10-16T19:19:28;16.40;99.90
21834;DHT22;11079;51.092;3.458;2022-10-16T19:21:54;16.20;99.90
21834;DHT22;11079;51.092;3.458;2022-10-16T19:24:38;16.20;99.90
21834;DHT22;11079;51.092;3.458;2022-10-16T19:27:09;16.20;99.90
21834;DHT22;11079;51.092;3.458;2022-10-16T19:29:38;16.20;99.90
21834;DHT22;11079;51.092;3.458;2022-10-16T19:32:09;16.20;99.90
21834;DHT22;11079;51.092;3.458;2022-10-16T19:34:35;16.30;99.90
21834;DHT22;11079;51.092;3.458;2022-10-16T19:37:06;16.20;99.90
21834;DHT22;11079;51.092;3.458;2022-10-16T19:39:38;16.30;99.90
21834;DHT22;11079;51.092;3.458;2022-10-16T19:42:04;16.20;99.90
21834;DHT22;11079;51.092;3.458;2022-10-16T19:44:37;16.20;99.90
21834;DHT22;11079;51.092;3.458;2022-10-16T19:47:09;16.20;99.90
21834;DHT22;11079;51.092;3.458;2022-10-16T19:49:35;16.40;99.90
21834;DHT22;11079;51.092;3.458;2022-10-16T19:52:04;16.60;99.90
21834;DHT22;11079;51.092;3.458;2022-10-16T19:54:29;16.60;99.90
21834;DHT22;11079;51.092;3.458;2022-10-16T19:56:59;16.50;99.90
21834;DHT22;11079;51.092;3.458;2022-10-16T19:59:28;16.70;99.90
21834;DHT22;11079;51.092;3.458;2022-10-16T20:01:55;16.60;99.90
21834;DHT22;11079;51.092;3.458;2022-10-16T20:04:28;16.60;99.90
21834;DHT22;11079;51.092;3.458;2022-10-16T20:06:54;16.60;99.90
21834;DHT22;11079;51.092;3.458;2022-10-16T20:09:20;16.60;99.90
21834;DHT22;11079;51.092;3.458;2022-10-16T20:11:45;16.60;99.90
21834;DHT22;11079;51.092;3.458;2022-10-16T20:14:20;16.70;99.90
21834;DHT22;11079;51.092;3.458;2022-10-16T20:16:46;16.60;99.90
21834;DHT22;11079;51.092;3.458;2022-10-16T20:19:12;16.40;99.90
21834;DHT22;11079;51.092;3.458;2022-10-16T20:21:55;16.40;99.90
21834;DHT22;11079;51.092;3.458;2022-10-16T20:24:21;16.40;99.90
21834;DHT22;11079;51.092;3.458;2022-10-16T20:26:46;16.40;99.90
21834;DHT22;11079;51.092;3.458;2022-10-16T20:29:18;16.40;99.90
21834;DHT22;11079;51.092;3.458;2022-10-16T20:31:52;16.40;99.90
21834;DHT22;11079;51.092;3.458;2022-10-16T20:34:18;16.20;99.90
21834;DHT22;11079;51.092;3.458;2022-10-16T20:36:43;16.30;99.90
21834;DHT22;11079;51.092;3.458;2022-10-16T20:39:15;16.30;99.90
21834;DHT22;11079;51.092;3.458;2022-10-16T20:41:40;16.20;99.90
21834;DHT22;11079;51.092;3.458;2022-10-16T20:44:09;16.00;99.90
21834;DHT22;11079;51.092;3.458;2022-10-16T20:46:37;16.10;99.90
21834;DHT22;11079;51.092;3.458;2022-10-16T20:51:54;16.10;99.90
21834;DHT22;11079;51.092;3.458;2022-10-16T20:54:20;16.10;99.90
21834;DHT22;11079;51.092;3.458;2022-10-16T20:56:46;16.20;99.90
21834;DHT22;11079;51.092;3.458;2022-10-16T20:59:12;16.20;99.90
21834;DHT22;11079;51.092;3.458;2022-10-16T21:01:41;16.00;99.90
21834;DHT22;11079;51.092;3.458;2022-10-16T21:04:27;15.90;99.90
21834;DHT22;11079;51.092;3.458;2022-10-16T21:06:55;15.90;99.90
21834;DHT22;11079;51.092;3.458;2022-10-16T21:09:21;15.90;99.90
21834;DHT22;11079;51.092;3.458;2022-10-16T21:11:47;16.00;99.90
21834;DHT22;11079;51.092;3.458;2022-10-16T21:14:17;16.00;99.90
21834;DHT22;11079;51.092;3.458;2022-10-16T21:16:42;15.90;99.90
21834;DHT22;11079;51.092;3.458;2022-10-16T21:19:09;15.80;99.90
21834;DHT22;11079;51.092;3.458;2022-10-16T21:21:37;15.80;99.90
21834;DHT22;11079;51.092;3.458;2022-10-16T21:24:07;15.80;99.90
21834;DHT22;11079;51.092;3.458;2022-10-16T21:26:38;15.80;99.90
21834;DHT22;11079;51.092;3.458;2022-10-16T21:29:17;15.70;99.90
21834;DHT22;11079;51.092;3.458;2022-10-16T21:31:56;15.60;99.90
21834;DHT22;11079;51.092;3.458;2022-10-16T21:34:21;15.60;99.90
21834;DHT22;11079;51.092;3.458;2022-10-16T21:40:27;15.60;99.90
21834;DHT22;11079;51.092;3.458;2022-10-16T21:43:19;15.50;99.90
21834;DHT22;11079;51.092;3.458;2022-10-16T21:45:56;15.60;99.90
21834;DHT22;11079;51.092;3.458;2022-10-16T21:48:36;15.60;99.90
21834;DHT22;11079;51.092;3.458;2022-10-16T21:51:08;15.60;99.90
21834;DHT22;11079;51.092;3.458;2022-10-16T21:54:09;15.50;99.90
21834;DHT22;11079;51.092;3.458;2022-10-16T21:56:36;15.50;99.90
21834;DHT22;11079;51.092;3.458;2022-10-16T21:59:01;15.50;99.90
21834;DHT22;11079;51.092;3.458;2022-10-16T22:02:08;15.50;99.90
21834;DHT22;11079;51.092;3.458;2022-10-16T22:04:43;15.60;99.90
21834;DHT22;11079;51.092;3.458;2022-10-16T22:07:11;15.50;99.90
21834;DHT22;11079;51.092;3.458;2022-10-16T22:09:39;15.50;99.90
21834;DHT22;11079;51.092;3.458;2022-10-16T22:26:19;15.60;99.90
